PASH

Shishmaref Airport

Airport
ICAO code
PASH
IATA Code
SHH
Summary
ICAO Region
NAM
ICAO Territory
Location

, Alaska

Serving
Shishmaref
Elevation
12 ft
Coordinates
66° 14' 59" N , 166° 5' 20" W
Metar
PASH 200556Z AUTO 28012KT 9SM CLR 09/07 A3013 RMK AO2 SLP205 T00890072 10156 20089 53017

Runways

Designator Length Width Surface Rops
5/23 1524 21 ASP Yes/Yes

Airport map

Aerial View

SKYbrary Partners:

Safety knowledge contributed by: